sensor_id;sensor_type;location;lat;lon;timestamp;temperature;humidity
37788;DHT22;23627;53.302;-6.362;2023-04-25T00:01:30;7.60;99.90
37788;DHT22;23627;53.302;-6.362;2023-04-25T00:03:57;7.60;99.90
37788;DHT22;23627;53.302;-6.362;2023-04-25T00:06:23;7.60;99.90
37788;DHT22;23627;53.302;-6.362;2023-04-25T00:08:52;7.60;99.90
37788;DHT22;23627;53.302;-6.362;2023-04-25T00:11:18;7.60;99.90
37788;DHT22;23627;53.302;-6.362;2023-04-25T00:13:51;7.50;99.90
37788;DHT22;23627;53.302;-6.362;2023-04-25T00:16:17;7.50;99.90
37788;DHT22;23627;53.302;-6.362;2023-04-25T00:18:44;7.50;99.90
37788;DHT22;23627;53.302;-6.362;2023-04-25T00:21:11;7.50;99.90
37788;DHT22;23627;53.302;-6.362;2023-04-25T00:23:37;7.50;99.90
37788;DHT22;23627;53.302;-6.362;2023-04-25T00:26:04;7.50;99.90
37788;DHT22;23627;53.302;-6.362;2023-04-25T00:28:30;7.50;99.90
37788;DHT22;23627;53.302;-6.362;2023-04-25T00:30:55;7.50;99.90
37788;DHT22;23627;53.302;-6.362;2023-04-25T00:33:21;7.50;99.90
37788;DHT22;23627;53.302;-6.362;2023-04-25T00:35:47;7.50;99.90
37788;DHT22;23627;53.302;-6.362;2023-04-25T00:38:13;7.50;99.90
37788;DHT22;23627;53.302;-6.362;2023-04-25T00:40:39;7.50;99.90
37788;DHT22;23627;53.302;-6.362;2023-04-25T00:43:04;7.50;99.90
37788;DHT22;23627;53.302;-6.362;2023-04-25T00:45:30;7.50;99.90
37788;DHT22;23627;53.302;-6.362;2023-04-25T00:47:56;7.50;99.90
37788;DHT22;23627;53.302;-6.362;2023-04-25T00:50:23;7.50;99.90
37788;DHT22;23627;53.302;-6.362;2023-04-25T00:52:49;7.50;99.90
37788;DHT22;23627;53.302;-6.362;2023-04-25T00:55:15;7.50;99.90
37788;DHT22;23627;53.302;-6.362;2023-04-25T00:57:42;7.50;99.90
37788;DHT22;23627;53.302;-6.362;2023-04-25T01:00:08;7.50;99.90
37788;DHT22;23627;53.302;-6.362;2023-04-25T01:02:35;7.50;99.90
37788;DHT22;23627;53.302;-6.362;2023-04-25T01:05:02;7.50;99.90
37788;DHT22;23627;53.302;-6.362;2023-04-25T01:07:28;7.50;99.90
37788;DHT22;23627;53.302;-6.362;2023-04-25T01:09:55;7.50;99.90
37788;DHT22;23627;53.302;-6.362;2023-04-25T01:12:20;7.50;99.90
37788;DHT22;23627;53.302;-6.362;2023-04-25T01:14:46;7.50;99.90
37788;DHT22;23627;53.302;-6.362;2023-04-25T01:17:12;7.50;99.90
37788;DHT22;23627;53.302;-6.362;2023-04-25T01:19:39;7.50;99.90
37788;DHT22;23627;53.302;-6.362;2023-04-25T01:22:05;7.50;99.90
37788;DHT22;23627;53.302;-6.362;2023-04-25T01:24:34;7.50;99.90
37788;DHT22;23627;53.302;-6.362;2023-04-25T01:27:01;7.50;99.90
37788;DHT22;23627;53.302;-6.362;2023-04-25T01:29:28;7.50;99.90
37788;DHT22;23627;53.302;-6.362;2023-04-25T01:31:54;7.50;99.90
37788;DHT22;23627;53.302;-6.362;2023-04-25T01:34:20;7.50;99.90
37788;DHT22;23627;53.302;-6.362;2023-04-25T01:36:50;7.50;99.90
37788;DHT22;23627;53.302;-6.362;2023-04-25T01:39:17;7.50;99.90
37788;DHT22;23627;53.302;-6.362;2023-04-25T01:41:43;7.50;99.90
37788;DHT22;23627;53.302;-6.362;2023-04-25T01:44:09;7.50;99.90
37788;DHT22;23627;53.302;-6.362;2023-04-25T01:46:35;7.40;99.90
37788;DHT22;23627;53.302;-6.362;2023-04-25T01:49:01;7.40;99.90
37788;DHT22;23627;53.302;-6.362;2023-04-25T01:51:27;7.40;99.90
37788;DHT22;23627;53.302;-6.362;2023-04-25T01:53:52;7.40;99.90
37788;DHT22;23627;53.302;-6.362;2023-04-25T01:56:19;7.40;99.90
37788;DHT22;23627;53.302;-6.362;2023-04-25T01:58:46;7.40;99.90
37788;DHT22;23627;53.302;-6.362;2023-04-25T02:01:11;7.40;99.90
37788;DHT22;23627;53.302;-6.362;2023-04-25T02:03:37;7.30;99.90
37788;DHT22;23627;53.302;-6.362;2023-04-25T02:06:03;7.30;99.90
37788;DHT22;23627;53.302;-6.362;2023-04-25T02:08:29;7.30;99.90
37788;DHT22;23627;53.302;-6.362;2023-04-25T02:10:55;7.30;99.90
37788;DHT22;23627;53.302;-6.362;2023-04-25T02:13:21;7.30;99.90
37788;DHT22;23627;53.302;-6.362;2023-04-25T02:15:47;7.20;99.90
37788;DHT22;23627;53.302;-6.362;2023-04-25T02:18:13;7.20;99.90
37788;DHT22;23627;53.302;-6.362;2023-04-25T02:20:41;7.20;99.90
37788;DHT22;23627;53.302;-6.362;2023-04-25T02:23:07;7.10;99.90
37788;DHT22;23627;53.302;-6.362;2023-04-25T02:25:33;7.10;99.90
37788;DHT22;23627;53.302;-6.362;2023-04-25T02:27:59;7.10;99.90
37788;DHT22;23627;53.302;-6.362;2023-04-25T02:30:24;7.10;99.90
37788;DHT22;23627;53.302;-6.362;2023-04-25T02:32:50;7.10;99.90
37788;DHT22;23627;53.302;-6.362;2023-04-25T02:35:16;7.10;99.90
37788;DHT22;23627;53.302;-6.362;2023-04-25T02:37:41;7.10;99.90
37788;DHT22;23627;53.302;-6.362;2023-04-25T02:40:08;7.00;99.90
37788;DHT22;23627;53.302;-6.362;2023-04-25T02:42:34;7.00;99.90
37788;DHT22;23627;53.302;-6.362;2023-04-25T02:45:00;7.00;99.90
37788;DHT22;23627;53.302;-6.362;2023-04-25T02:47:26;7.00;99.90
37788;DHT22;23627;53.302;-6.362;2023-04-25T02:49:51;7.00;99.90
37788;DHT22;23627;53.302;-6.362;2023-04-25T02:52:17;7.00;99.90
37788;DHT22;23627;53.302;-6.362;2023-04-25T02:54:43;7.00;99.90
37788;DHT22;23627;53.302;-6.362;2023-04-25T02:57:09;7.00;99.90
37788;DHT22;23627;53.302;-6.362;2023-04-25T02:59:35;7.00;99.90
37788;DHT22;23627;53.302;-6.362;2023-04-25T03:02:01;7.00;99.90
37788;DHT22;23627;53.302;-6.362;2023-04-25T03:04:27;7.00;99.90
37788;DHT22;23627;53.302;-6.362;2023-04-25T03:06:53;7.00;99.90
37788;DHT22;23627;53.302;-6.362;2023-04-25T03:09:19;6.90;99.90
37788;DHT22;23627;53.302;-6.362;2023-04-25T03:11:45;6.90;99.90
37788;DHT22;23627;53.302;-6.362;2023-04-25T03:14:12;6.90;99.90
37788;DHT22;23627;53.302;-6.362;2023-04-25T03:16:37;6.90;99.90
37788;DHT22;23627;53.302;-6.362;2023-04-25T03:19:03;6.90;99.90
37788;DHT22;23627;53.302;-6.362;2023-04-25T03:21:31;6.90;99.90
37788;DHT22;23627;53.302;-6.362;2023-04-25T03:23:58;6.80;99.90
37788;DHT22;23627;53.302;-6.362;2023-04-25T03:26:24;6.80;99.90
37788;DHT22;23627;53.302;-6.362;2023-04-25T03:28:49;6.80;99.90
37788;DHT22;23627;53.302;-6.362;2023-04-25T03:31:15;6.80;99.90
37788;DHT22;23627;53.302;-6.362;2023-04-25T03:33:41;6.70;99.90
37788;DHT22;23627;53.302;-6.362;2023-04-25T03:36:07;6.70;99.90
37788;DHT22;23627;53.302;-6.362;2023-04-25T03:38:33;6.70;99.90
37788;DHT22;23627;53.302;-6.362;2023-04-25T03:40:59;6.70;99.90
37788;DHT22;23627;53.302;-6.362;2023-04-25T03:43:25;6.60;99.90
37788;DHT22;23627;53.302;-6.362;2023-04-25T03:45:50;6.60;99.90
37788;DHT22;23627;53.302;-6.362;2023-04-25T03:48:16;6.60;99.90
37788;DHT22;23627;53.302;-6.362;2023-04-25T03:50:42;6.50;99.90
37788;DHT22;23627;53.302;-6.362;2023-04-25T03:53:08;6.50;99.90
37788;DHT22;23627;53.302;-6.362;2023-04-25T03:55:33;6.50;99.90
37788;DHT22;23627;53.302;-6.362;2023-04-25T03:57:59;6.50;99.90
37788;DHT22;23627;53.302;-6.362;2023-04-25T04:00:25;6.50;99.90
37788;DHT22;23627;53.302;-6.362;2023-04-25T04:02:51;6.50;99.90
37788;DHT22;23627;53.302;-6.362;2023-04-25T04:05:17;6.40;99.90
37788;DHT22;23627;53.302;-6.362;2023-04-25T04:07:43;6.40;99.90
37788;DHT22;23627;53.302;-6.362;2023-04-25T04:10:11;6.40;99.90
37788;DHT22;23627;53.302;-6.362;2023-04-25T04:12:38;6.40;99.90
37788;DHT22;23627;53.302;-6.362;2023-04-25T04:15:07;6.40;99.90
37788;DHT22;23627;53.302;-6.362;2023-04-25T04:17:33;6.30;99.90
37788;DHT22;23627;53.302;-6.362;2023-04-25T04:19:59;6.30;99.90
37788;DHT22;23627;53.302;-6.362;2023-04-25T04:22:25;6.30;99.90
37788;DHT22;23627;53.302;-6.362;2023-04-25T04:24:51;6.30;99.90
37788;DHT22;23627;53.302;-6.362;2023-04-25T04:27:21;6.30;99.90
37788;DHT22;23627;53.302;-6.362;2023-04-25T04:29:46;6.20;99.90
37788;DHT22;23627;53.302;-6.362;2023-04-25T04:32:13;6.20;99.90
37788;DHT22;23627;53.302;-6.362;2023-04-25T04:34:39;6.20;99.90
37788;DHT22;23627;53.302;-6.362;2023-04-25T04:37:06;6.20;99.90
37788;DHT22;23627;53.302;-6.362;2023-04-25T04:39:33;6.20;99.90
37788;DHT22;23627;53.302;-6.362;2023-04-25T04:41:59;6.20;99.90
37788;DHT22;23627;53.302;-6.362;2023-04-25T04:44:27;6.10;99.90
37788;DHT22;23627;53.302;-6.362;2023-04-25T04:50:15;6.10;99.90
37788;DHT22;23627;53.302;-6.362;2023-04-25T04:52:42;6.10;99.90
37788;DHT22;23627;53.302;-6.362;2023-04-25T04:55:08;6.10;99.90
37788;DHT22;23627;53.302;-6.362;2023-04-25T04:57:35;6.00;99.90
37788;DHT22;23627;53.302;-6.362;2023-04-25T05:00:01;6.00;99.90
37788;DHT22;23627;53.302;-6.362;2023-04-25T05:02:27;6.00;99.90
37788;DHT22;23627;53.302;-6.362;2023-04-25T05:04:53;6.00;99.90
37788;DHT22;23627;53.302;-6.362;2023-04-25T05:07:19;6.00;99.90
37788;DHT22;23627;53.302;-6.362;2023-04-25T05:09:44;6.00;99.90
37788;DHT22;23627;53.302;-6.362;2023-04-25T05:12:10;6.00;99.90
37788;DHT22;23627;53.302;-6.362;2023-04-25T05:14:36;5.90;99.90
37788;DHT22;23627;53.302;-6.362;2023-04-25T05:17:02;5.90;99.90
37788;DHT22;23627;53.302;-6.362;2023-04-25T05:19:32;5.90;99.90
37788;DHT22;23627;53.302;-6.362;2023-04-25T05:21:58;5.90;99.90
37788;DHT22;23627;53.302;-6.362;2023-04-25T05:24:23;5.90;99.90
37788;DHT22;23627;53.302;-6.362;2023-04-25T05:26:49;5.90;99.90
37788;DHT22;23627;53.302;-6.362;2023-04-25T05:29:15;5.90;99.90
37788;DHT22;23627;53.302;-6.362;2023-04-25T05:31:41;5.90;99.90
37788;DHT22;23627;53.302;-6.362;2023-04-25T05:34:06;5.90;99.90
37788;DHT22;23627;53.302;-6.362;2023-04-25T05:36:32;5.90;99.90
37788;DHT22;23627;53.302;-6.362;2023-04-25T05:38:58;5.90;99.90
37788;DHT22;23627;53.302;-6.362;2023-04-25T05:41:23;5.90;99.90
37788;DHT22;23627;53.302;-6.362;2023-04-25T05:43:49;6.00;99.90
37788;DHT22;23627;53.302;-6.362;2023-04-25T05:46:15;6.00;99.90
37788;DHT22;23627;53.302;-6.362;2023-04-25T05:48:45;6.00;99.90
37788;DHT22;23627;53.302;-6.362;2023-04-25T05:51:10;6.00;99.90
37788;DHT22;23627;53.302;-6.362;2023-04-25T05:53:36;6.00;99.90
37788;DHT22;23627;53.302;-6.362;2023-04-25T05:56:02;6.10;99.90
37788;DHT22;23627;53.302;-6.362;2023-04-25T05:58:28;6.10;99.90
37788;DHT22;23627;53.302;-6.362;2023-04-25T06:00:54;6.10;99.90
37788;DHT22;23627;53.302;-6.362;2023-04-25T06:03:20;6.10;99.90
37788;DHT22;23627;53.302;-6.362;2023-04-25T06:05:46;6.10;99.90
37788;DHT22;23627;53.302;-6.362;2023-04-25T06:08:12;6.10;99.90
37788;DHT22;23627;53.302;-6.362;2023-04-25T06:10:38;6.20;99.90
37788;DHT22;23627;53.302;-6.362;2023-04-25T06:13:04;6.20;99.90
37788;DHT22;23627;53.302;-6.362;2023-04-25T06:15:30;6.20;99.90
37788;DHT22;23627;53.302;-6.362;2023-04-25T06:17:58;6.20;99.90
37788;DHT22;23627;53.302;-6.362;2023-04-25T06:20:24;6.20;99.90
37788;DHT22;23627;53.302;-6.362;2023-04-25T06:22:50;6.20;99.90
37788;DHT22;23627;53.302;-6.362;2023-04-25T06:25:17;6.20;99.90
37788;DHT22;23627;53.302;-6.362;2023-04-25T06:27:42;6.20;99.90
37788;DHT22;23627;53.302;-6.362;2023-04-25T06:30:09;6.30;99.90
37788;DHT22;23627;53.302;-6.362;2023-04-25T06:32:35;6.30;99.90
37788;DHT22;23627;53.302;-6.362;2023-04-25T06:35:01;6.30;99.90
37788;DHT22;23627;53.302;-6.362;2023-04-25T06:37:26;6.30;99.90
37788;DHT22;23627;53.302;-6.362;2023-04-25T06:39:52;6.30;99.90
37788;DHT22;23627;53.302;-6.362;2023-04-25T06:42:18;6.30;99.90
37788;DHT22;23627;53.302;-6.362;2023-04-25T06:44:44;6.40;99.90
37788;DHT22;23627;53.302;-6.362;2023-04-25T06:47:09;6.40;99.90
37788;DHT22;23627;53.302;-6.362;2023-04-25T06:49:35;6.40;99.90
37788;DHT22;23627;53.302;-6.362;2023-04-25T06:52:01;6.40;99.90
37788;DHT22;23627;53.302;-6.362;2023-04-25T06:54:26;6.40;99.90
37788;DHT22;23627;53.302;-6.362;2023-04-25T06:56:55;6.40;99.90
37788;DHT22;23627;53.302;-6.362;2023-04-25T06:59:21;6.40;99.90
37788;DHT22;23627;53.302;-6.362;2023-04-25T07:01:46;6.50;99.90
37788;DHT22;23627;53.302;-6.362;2023-04-25T07:04:12;6.50;99.90
37788;DHT22;23627;53.302;-6.362;2023-04-25T07:06:38;6.60;99.90
37788;DHT22;23627;53.302;-6.362;2023-04-25T07:09:08;6.60;99.90
37788;DHT22;23627;53.302;-6.362;2023-04-25T07:11:36;6.70;99.90
37788;DHT22;23627;53.302;-6.362;2023-04-25T07:14:02;6.70;99.90
37788;DHT22;23627;53.302;-6.362;2023-04-25T07:16:27;6.80;99.90
37788;DHT22;23627;53.302;-6.362;2023-04-25T07:18:53;6.80;99.90
37788;DHT22;23627;53.302;-6.362;2023-04-25T07:21:19;6.80;99.90
37788;DHT22;23627;53.302;-6.362;2023-04-25T07:23:45;6.80;99.90
37788;DHT22;23627;53.302;-6.362;2023-04-25T07:26:10;6.80;99.90
37788;DHT22;23627;53.302;-6.362;2023-04-25T07:28:36;6.80;99.90
37788;DHT22;23627;53.302;-6.362;2023-04-25T07:31:02;6.90;99.90
37788;DHT22;23627;53.302;-6.362;2023-04-25T07:33:28;6.90;99.90
37788;DHT22;23627;53.302;-6.362;2023-04-25T07:35:55;6.90;99.90
37788;DHT22;23627;53.302;-6.362;2023-04-25T07:38:21;6.90;99.90
37788;DHT22;23627;53.302;-6.362;2023-04-25T07:40:50;7.00;99.90
37788;DHT22;23627;53.302;-6.362;2023-04-25T07:43:16;7.00;99.90
37788;DHT22;23627;53.302;-6.362;2023-04-25T07:45:45;7.00;99.90
37788;DHT22;23627;53.302;-6.362;2023-04-25T07:48:16;7.10;99.90
37788;DHT22;23627;53.302;-6.362;2023-04-25T07:50:42;7.20;99.90
37788;DHT22;23627;53.302;-6.362;2023-04-25T07:53:08;7.20;99.90
37788;DHT22;23627;53.302;-6.362;2023-04-25T07:55:34;7.30;99.90
37788;DHT22;23627;53.302;-6.362;2023-04-25T07:57:59;7.40;99.90
37788;DHT22;23627;53.302;-6.362;2023-04-25T08:00:25;7.50;99.90
37788;DHT22;23627;53.302;-6.362;2023-04-25T08:02:51;7.50;99.90
37788;DHT22;23627;53.302;-6.362;2023-04-25T08:05:17;7.60;99.90
37788;DHT22;23627;53.302;-6.362;2023-04-25T08:07:43;7.80;99.90
37788;DHT22;23627;53.302;-6.362;2023-04-25T08:10:09;8.00;99.90
37788;DHT22;23627;53.302;-6.362;2023-04-25T08:12:35;8.30;99.90
37788;DHT22;23627;53.302;-6.362;2023-04-25T08:15:01;8.60;99.90
37788;DHT22;23627;53.302;-6.362;2023-04-25T08:17:27;9.00;99.90
37788;DHT22;23627;53.302;-6.362;2023-04-25T08:19:53;9.30;99.90
37788;DHT22;23627;53.302;-6.362;2023-04-25T08:22:18;9.60;99.90
37788;DHT22;23627;53.302;-6.362;2023-04-25T08:24:44;10.00;99.90
37788;DHT22;23627;53.302;-6.362;2023-04-25T08:27:10;10.20;99.90
37788;DHT22;23627;53.302;-6.362;2023-04-25T08:29:36;10.50;99.90
37788;DHT22;23627;53.302;-6.362;2023-04-25T08:32:02;10.70;99.90
37788;DHT22;23627;53.302;-6.362;2023-04-25T08:34:28;11.00;99.90
37788;DHT22;23627;53.302;-6.362;2023-04-25T08:36:53;11.20;99.90
37788;DHT22;23627;53.302;-6.362;2023-04-25T08:39:19;11.50;99.90
37788;DHT22;23627;53.302;-6.362;2023-04-25T08:41:46;11.60;99.90
37788;DHT22;23627;53.302;-6.362;2023-04-25T08:44:12;11.90;99.90
37788;DHT22;23627;53.302;-6.362;2023-04-25T08:46:41;12.10;99.90
37788;DHT22;23627;53.302;-6.362;2023-04-25T08:49:07;12.20;99.90
37788;DHT22;23627;53.302;-6.362;2023-04-25T08:51:36;12.40;99.90
37788;DHT22;23627;53.302;-6.362;2023-04-25T08:54:10;12.60;99.90
37788;DHT22;23627;53.302;-6.362;2023-04-25T08:56:38;12.50;99.90
37788;DHT22;23627;53.302;-6.362;2023-04-25T08:59:04;12.50;99.90
37788;DHT22;23627;53.302;-6.362;2023-04-25T09:01:36;12.30;99.90
37788;DHT22;23627;53.302;-6.362;2023-04-25T09:04:02;12.20;99.90
37788;DHT22;23627;53.302;-6.362;2023-04-25T09:06:32;12.10;99.90
37788;DHT22;23627;53.302;-6.362;2023-04-25T09:09:05;12.10;99.90
37788;DHT22;23627;53.302;-6.362;2023-04-25T09:11:32;12.00;99.90
37788;DHT22;23627;53.302;-6.362;2023-04-25T09:14:12;12.00;99.90
37788;DHT22;23627;53.302;-6.362;2023-04-25T09:19:33;12.10;99.90
37788;DHT22;23627;53.302;-6.362;2023-04-25T09:22:02;12.20;99.90
37788;DHT22;23627;53.302;-6.362;2023-04-25T09:24:39;12.40;99.90
37788;DHT22;23627;53.302;-6.362;2023-04-25T09:27:12;12.40;99.90
37788;DHT22;23627;53.302;-6.362;2023-04-25T09:29:39;12.40;99.90
37788;DHT22;23627;53.302;-6.362;2023-04-25T09:32:26;12.40;99.90
37788;DHT22;23627;53.302;-6.362;2023-04-25T09:34:56;12.50;99.90
37788;DHT22;23627;53.302;-6.362;2023-04-25T09:39:53;12.70;99.90
37788;DHT22;23627;53.302;-6.362;2023-04-25T09:42:22;12.70;99.90
37788;DHT22;23627;53.302;-6.362;2023-04-25T09:44:52;12.80;99.90
37788;DHT22;23627;53.302;-6.362;2023-04-25T09:47:18;12.70;99.90
37788;DHT22;23627;53.302;-6.362;2023-04-25T09:49:46;12.70;99.90
37788;DHT22;23627;53.302;-6.362;2023-04-25T09:52:19;12.70;99.90
37788;DHT22;23627;53.302;-6.362;2023-04-25T09:54:46;12.80;99.90
37788;DHT22;23627;53.302;-6.362;2023-04-25T09:57:16;12.80;99.90
37788;DHT22;23627;53.302;-6.362;2023-04-25T09:59:50;12.90;99.90
37788;DHT22;23627;53.302;-6.362;2023-04-25T10:02:18;12.90;99.90
37788;DHT22;23627;53.302;-6.362;2023-04-25T10:04:49;12.90;99.90
37788;DHT22;23627;53.302;-6.362;2023-04-25T10:07:18;13.00;99.90
37788;DHT22;23627;53.302;-6.362;2023-04-25T10:09:48;13.00;99.90
37788;DHT22;23627;53.302;-6.362;2023-04-25T10:12:16;13.10;99.90
37788;DHT22;23627;53.302;-6.362;2023-04-25T10:14:42;13.10;99.90
37788;DHT22;23627;53.302;-6.362;2023-04-25T10:17:10;13.10;99.90
37788;DHT22;23627;53.302;-6.362;2023-04-25T10:19:37;13.20;99.90
37788;DHT22;23627;53.302;-6.362;2023-04-25T10:22:17;13.20;99.90
37788;DHT22;23627;53.302;-6.362;2023-04-25T10:24:44;13.30;99.90
37788;DHT22;23627;53.302;-6.362;2023-04-25T10:27:12;13.50;99.90
37788;DHT22;23627;53.302;-6.362;2023-04-25T10:29:39;13.60;99.90
37788;DHT22;23627;53.302;-6.362;2023-04-25T10:32:08;13.80;99.90
37788;DHT22;23627;53.302;-6.362;2023-04-25T10:34:44;13.90;99.90
37788;DHT22;23627;53.302;-6.362;2023-04-25T10:37:13;13.90;99.90
37788;DHT22;23627;53.302;-6.362;2023-04-25T10:39:40;13.90;99.90
37788;DHT22;23627;53.302;-6.362;2023-04-25T10:42:07;13.90;99.90
37788;DHT22;23627;53.302;-6.362;2023-04-25T10:44:37;13.90;99.90
37788;DHT22;23627;53.302;-6.362;2023-04-25T10:47:06;13.90;99.90
37788;DHT22;23627;53.302;-6.362;2023-04-25T10:49:41;14.00;99.90
37788;DHT22;23627;53.302;-6.362;2023-04-25T10:52:25;14.10;99.90
37788;DHT22;23627;53.302;-6.362;2023-04-25T10:54:53;14.30;99.90
37788;DHT22;23627;53.302;-6.362;2023-04-25T10:57:41;14.20;99.90
37788;DHT22;23627;53.302;-6.362;2023-04-25T11:00:14;14.20;99.90
37788;DHT22;23627;53.302;-6.362;2023-04-25T11:02:48;14.20;99.90
37788;DHT22;23627;53.302;-6.362;2023-04-25T11:05:24;14.30;99.90
37788;DHT22;23627;53.302;-6.362;2023-04-25T11:07:55;14.30;99.90
37788;DHT22;23627;53.302;-6.362;2023-04-25T11:10:31;14.30;99.90
37788;DHT22;23627;53.302;-6.362;2023-04-25T11:12:58;14.30;99.90
37788;DHT22;23627;53.302;-6.362;2023-04-25T11:15:26;14.20;99.90
37788;DHT22;23627;53.302;-6.362;2023-04-25T11:17:55;14.20;99.90
37788;DHT22;23627;53.302;-6.362;2023-04-25T11:20:22;14.20;99.90
37788;DHT22;23627;53.302;-6.362;2023-04-25T11:22:48;14.10;99.90
37788;DHT22;23627;53.302;-6.362;2023-04-25T11:25:15;14.10;99.90
37788;DHT22;23627;53.302;-6.362;2023-04-25T11:27:56;14.10;99.90
37788;DHT22;23627;53.302;-6.362;2023-04-25T11:30:24;14.00;99.90
37788;DHT22;23627;53.302;-6.362;2023-04-25T11:32:50;14.00;99.90
37788;DHT22;23627;53.302;-6.362;2023-04-25T11:35:18;14.00;99.90
37788;DHT22;23627;53.302;-6.362;2023-04-25T11:37:44;13.90;99.90
37788;DHT22;23627;53.302;-6.362;2023-04-25T11:40:11;13.90;99.90
37788;DHT22;23627;53.302;-6.362;2023-04-25T11:42:46;14.00;99.90
37788;DHT22;23627;53.302;-6.362;2023-04-25T11:45:15;14.10;99.90
37788;DHT22;23627;53.302;-6.362;2023-04-25T11:47:41;14.00;99.90
37788;DHT22;23627;53.302;-6.362;2023-04-25T11:50:08;14.20;99.90
37788;DHT22;23627;53.302;-6.362;2023-04-25T11:52:37;14.30;99.90
37788;DHT22;23627;53.302;-6.362;2023-04-25T11:55:15;14.40;99.90
37788;DHT22;23627;53.302;-6.362;2023-04-25T11:57:42;14.50;99.90
37788;DHT22;23627;53.302;-6.362;2023-04-25T12:00:14;14.50;99.90
37788;DHT22;23627;53.302;-6.362;2023-04-25T12:02:52;14.50;99.90
37788;DHT22;23627;53.302;-6.362;2023-04-25T12:05:19;14.40;99.90
37788;DHT22;23627;53.302;-6.362;2023-04-25T12:07:46;14.30;99.90
37788;DHT22;23627;53.302;-6.362;2023-04-25T12:10:14;14.30;99.90
37788;DHT22;23627;53.302;-6.362;2023-04-25T12:12:47;14.40;99.90
37788;DHT22;23627;53.302;-6.362;2023-04-25T12:15:17;14.40;99.90
37788;DHT22;23627;53.302;-6.362;2023-04-25T12:17:48;14.50;99.90
37788;DHT22;23627;53.302;-6.362;2023-04-25T12:20:17;14.50;99.90
37788;DHT22;23627;53.302;-6.362;2023-04-25T12:22:45;14.50;99.90
37788;DHT22;23627;53.302;-6.362;2023-04-25T12:25:36;14.50;99.90
37788;DHT22;23627;53.302;-6.362;2023-04-25T12:28:23;14.50;99.90
37788;DHT22;23627;53.302;-6.362;2023-04-25T12:31:05;14.50;99.90
37788;DHT22;23627;53.302;-6.362;2023-04-25T12:33:36;14.50;99.90
37788;DHT22;23627;53.302;-6.362;2023-04-25T12:36:03;14.60;99.90
37788;DHT22;23627;53.302;-6.362;2023-04-25T12:38:37;14.60;99.90
37788;DHT22;23627;53.302;-6.362;2023-04-25T12:41:03;14.70;99.90
37788;DHT22;23627;53.302;-6.362;2023-04-25T12:43:29;14.70;99.90
37788;DHT22;23627;53.302;-6.362;2023-04-25T12:45:56;14.80;99.90
37788;DHT22;23627;53.302;-6.362;2023-04-25T12:48:23;14.80;99.90
37788;DHT22;23627;53.302;-6.362;2023-04-25T12:50:49;14.80;99.90
37788;DHT22;23627;53.302;-6.362;2023-04-25T12:53:20;14.90;99.90
37788;DHT22;23627;53.302;-6.362;2023-04-25T12:55:47;14.90;99.90
37788;DHT22;23627;53.302;-6.362;2023-04-25T12:58:17;14.90;99.90
37788;DHT22;23627;53.302;-6.362;2023-04-25T13:00:43;14.90;99.90
37788;DHT22;23627;53.302;-6.362;2023-04-25T13:03:11;15.00;99.90
37788;DHT22;23627;53.302;-6.362;2023-04-25T13:05:38;15.00;99.90
37788;DHT22;23627;53.302;-6.362;2023-04-25T13:08:04;14.90;99.90
37788;DHT22;23627;53.302;-6.362;2023-04-25T13:10:30;14.80;99.90
37788;DHT22;23627;53.302;-6.362;2023-04-25T13:12:56;14.80;99.90
37788;DHT22;23627;53.302;-6.362;2023-04-25T13:15:22;14.70;99.90
37788;DHT22;23627;53.302;-6.362;2023-04-25T13:17:48;14.70;99.90
37788;DHT22;23627;53.302;-6.362;2023-04-25T13:20:14;14.70;99.90
37788;DHT22;23627;53.302;-6.362;2023-04-25T13:22:42;14.70;99.90
37788;DHT22;23627;53.302;-6.362;2023-04-25T13:25:08;14.80;99.90
37788;DHT22;23627;53.302;-6.362;2023-04-25T13:27:35;15.10;99.90
37788;DHT22;23627;53.302;-6.362;2023-04-25T13:30:02;15.30;99.90
37788;DHT22;23627;53.302;-6.362;2023-04-25T13:32:33;15.50;99.90
37788;DHT22;23627;53.302;-6.362;2023-04-25T13:35:02;15.50;99.90
37788;DHT22;23627;53.302;-6.362;2023-04-25T13:37:28;15.40;99.90
37788;DHT22;23627;53.302;-6.362;2023-04-25T13:39:55;15.30;99.90
37788;DHT22;23627;53.302;-6.362;2023-04-25T13:42:22;15.20;99.90
37788;DHT22;23627;53.302;-6.362;2023-04-25T13:44:48;15.10;99.90
37788;DHT22;23627;53.302;-6.362;2023-04-25T13:47:14;15.00;99.90
37788;DHT22;23627;53.302;-6.362;2023-04-25T13:49:40;15.00;99.90
37788;DHT22;23627;53.302;-6.362;2023-04-25T13:52:05;15.00;99.90
37788;DHT22;23627;53.302;-6.362;2023-04-25T13:54:31;15.00;99.90
37788;DHT22;23627;53.302;-6.362;2023-04-25T13:56:57;15.00;99.90
37788;DHT22;23627;53.302;-6.362;2023-04-25T13:59:24;15.10;99.90
37788;DHT22;23627;53.302;-6.362;2023-04-25T14:01:51;15.10;99.90
37788;DHT22;23627;53.302;-6.362;2023-04-25T14:04:17;15.10;99.90
37788;DHT22;23627;53.302;-6.362;2023-04-25T14:06:43;15.10;99.90
37788;DHT22;23627;53.302;-6.362;2023-04-25T14:09:09;15.10;99.90
37788;DHT22;23627;53.302;-6.362;2023-04-25T14:11:36;15.10;99.90
37788;DHT22;23627;53.302;-6.362;2023-04-25T14:14:02;15.10;99.90
37788;DHT22;23627;53.302;-6.362;2023-04-25T14:16:29;15.10;99.90
37788;DHT22;23627;53.302;-6.362;2023-04-25T14:18:55;15.10;99.90
37788;DHT22;23627;53.302;-6.362;2023-04-25T14:21:21;15.20;99.90
37788;DHT22;23627;53.302;-6.362;2023-04-25T14:23:47;15.30;99.90
37788;DHT22;23627;53.302;-6.362;2023-04-25T14:26:13;15.30;99.90
37788;DHT22;23627;53.302;-6.362;2023-04-25T14:28:39;15.30;99.90
37788;DHT22;23627;53.302;-6.362;2023-04-25T14:31:06;15.20;99.90
37788;DHT22;23627;53.302;-6.362;2023-04-25T14:33:32;15.20;99.90
37788;DHT22;23627;53.302;-6.362;2023-04-25T14:35:57;15.10;99.90
37788;DHT22;23627;53.302;-6.362;2023-04-25T14:38:23;15.10;99.90
37788;DHT22;23627;53.302;-6.362;2023-04-25T14:40:51;15.10;99.90
37788;DHT22;23627;53.302;-6.362;2023-04-25T14:43:16;15.00;99.90
37788;DHT22;23627;53.302;-6.362;2023-04-25T14:45:42;15.00;99.90
37788;DHT22;23627;53.302;-6.362;2023-04-25T14:48:08;14.90;99.90
37788;DHT22;23627;53.302;-6.362;2023-04-25T14:50:34;14.90;99.90
37788;DHT22;23627;53.302;-6.362;2023-04-25T14:53:00;14.80;99.90
37788;DHT22;23627;53.302;-6.362;2023-04-25T14:55:29;14.80;99.90
37788;DHT22;23627;53.302;-6.362;2023-04-25T14:57:55;14.70;99.90
37788;DHT22;23627;53.302;-6.362;2023-04-25T15:00:22;14.70;99.90
37788;DHT22;23627;53.302;-6.362;2023-04-25T15:02:51;14.70;99.90
37788;DHT22;23627;53.302;-6.362;2023-04-25T15:05:17;14.60;99.90
37788;DHT22;23627;53.302;-6.362;2023-04-25T15:07:43;14.60;99.90
37788;DHT22;23627;53.302;-6.362;2023-04-25T15:10:10;14.60;99.90
37788;DHT22;23627;53.302;-6.362;2023-04-25T15:12:44;14.50;99.90
37788;DHT22;23627;53.302;-6.362;2023-04-25T15:15:10;14.30;99.90
37788;DHT22;23627;53.302;-6.362;2023-04-25T15:17:46;14.20;99.90
37788;DHT22;23627;53.302;-6.362;2023-04-25T15:20:13;14.20;99.90
37788;DHT22;23627;53.302;-6.362;2023-04-25T15:22:40;14.10;99.90
37788;DHT22;23627;53.302;-6.362;2023-04-25T15:25:07;14.00;99.90
37788;DHT22;23627;53.302;-6.362;2023-04-25T15:27:38;13.90;99.90
37788;DHT22;23627;53.302;-6.362;2023-04-25T15:30:11;13.80;99.90
37788;DHT22;23627;53.302;-6.362;2023-04-25T15:32:39;13.70;99.90
37788;DHT22;23627;53.302;-6.362;2023-04-25T15:35:05;13.70;99.90